Time;durP1;ratioP1;P1;durP2;ratioP2;P2;SDS_P1;SDS_P2;PMS_P1;PMS_P2;Temp;Humidity;BMP_temperature;BMP_pressure;BME280_temperature;BME280_humidity;BME280_pressure;Samples;Min_cycle;Max_cycle;Signal;HPM_P1;HPM_P2
2023/10/02 00:05:07;;;;;;;7.35;4.32;;;;;;;;;;4996538;28;20264;-51
2023/10/02 00:07:36;;;;;;;7.78;4.53;;;;;;;;;;4993300;28;20185;-51
2023/10/02 00:10:05;;;;;;;7.93;4.90;;;;;;;;;;5001246;28;20192;-51
2023/10/02 00:12:34;;;;;;;10.13;4.60;;;;;;;;;;4998283;28;20504;-51
2023/10/02 00:15:12;;;;;;;8.00;4.70;;;;;;;;;;5000193;28;20188;-51
2023/10/02 00:17:43;;;;;;;7.28;4.15;;;;;;;;;;4998915;28;20191;-51
2023/10/02 00:20:21;;;;;;;8.18;4.65;;;;;;;;;;4994678;28;20235;-51
2023/10/02 00:22:47;;;;;;;9.40;4.63;;;;;;;;;;4991956;28;20289;-51
2023/10/02 00:25:16;;;;;;;8.77;4.13;;;;;;;;;;4996130;28;20276;-51
2023/10/02 00:27:46;;;;;;;5.75;3.35;;;;;;;;;;4997949;28;20176;-51
2023/10/02 00:30:13;;;;;;;8.93;4.20;;;;;;;;;;5009046;28;20268;-51
2023/10/02 00:32:41;;;;;;;9.77;4.15;;;;;;;;;;4988439;28;20190;-51
2023/10/02 00:35:10;;;;;;;7.28;4.13;;;;;;;;;;5008790;28;20177;-51
2023/10/02 00:37:51;;;;;;;7.13;4.05;;;;;;;;;;5004465;28;20495;-51
2023/10/02 00:40:25;;;;;;;6.57;4.28;;;;;;;;;;4999096;28;20204;-51
2023/10/02 00:42:58;;;;;;;8.70;4.38;;;;;;;;;;4996050;28;20196;-51
2023/10/02 00:45:38;;;;;;;8.70;3.78;;;;;;;;;;5007837;28;20222;-51
2023/10/02 00:51:11;;;;;;;6.55;4.13;;;;;;;;;;4977398;28;20268;-51
2023/10/02 00:53:38;;;;;;;6.15;3.92;;;;;;;;;;4986888;28;20193;-51
2023/10/02 00:56:20;;;;;;;6.25;3.70;;;;;;;;;;5002904;28;20208;-51
2023/10/02 00:59:00;;;;;;;6.18;3.78;;;;;;;;;;4999098;28;20255;-51
2023/10/02 01:01:26;;;;;;;7.03;3.67;;;;;;;;;;5003239;28;20261;-51
2023/10/02 01:04:11;;;;;;;6.60;3.75;;;;;;;;;;4990817;28;20177;-51
2023/10/02 01:09:25;;;;;;;7.05;4.15;;;;;;;;;;4988851;28;20201;-51
2023/10/02 01:11:51;;;;;;;5.93;3.80;;;;;;;;;;5004441;28;20177;-51
2023/10/02 01:14:40;;;;;;;7.03;3.90;;;;;;;;;;4999610;28;20211;-51
2023/10/02 01:17:06;;;;;;;8.18;3.55;;;;;;;;;;5003866;28;20831;-50
2023/10/02 01:19:52;;;;;;;7.55;3.95;;;;;;;;;;5007068;28;20185;-51
2023/10/02 01:22:26;;;;;;;6.07;3.70;;;;;;;;;;5011274;28;20188;-51
2023/10/02 01:25:06;;;;;;;6.60;3.83;;;;;;;;;;5002500;28;20572;-51
2023/10/02 01:27:40;;;;;;;6.28;3.90;;;;;;;;;;5003742;28;20189;-51
2023/10/02 01:30:15;;;;;;;8.95;4.47;;;;;;;;;;5018551;28;20180;-51
2023/10/02 01:33:06;;;;;;;6.18;3.67;;;;;;;;;;5004307;28;20177;-51
2023/10/02 01:35:36;;;;;;;8.70;3.80;;;;;;;;;;5010353;28;20202;-51
2023/10/02 01:38:06;;;;;;;8.95;4.15;;;;;;;;;;5009334;28;20175;-51
2023/10/02 01:40:35;;;;;;;7.43;4.15;;;;;;;;;;4996848;28;20206;-51
2023/10/02 01:43:14;;;;;;;7.50;4.38;;;;;;;;;;5003429;28;20291;-51
2023/10/02 01:45:43;;;;;;;6.75;3.60;;;;;;;;;;5008940;28;20485;-51
2023/10/02 01:48:12;;;;;;;5.68;3.67;;;;;;;;;;5005753;28;20508;-51
2023/10/02 01:50:38;;;;;;;7.38;4.40;;;;;;;;;;5011354;28;20259;-51
2023/10/02 01:53:07;;;;;;;7.47;3.65;;;;;;;;;;4997989;28;20279;-51
2023/10/02 01:55:36;;;;;;;6.38;3.35;;;;;;;;;;4992839;28;20189;-51
2023/10/02 01:58:16;;;;;;;7.45;3.65;;;;;;;;;;4989571;28;20185;-51
2023/10/02 02:00:45;;;;;;;7.05;3.83;;;;;;;;;;4992569;28;20200;-51
2023/10/02 02:03:14;;;;;;;7.07;4.00;;;;;;;;;;4990336;28;20178;-51
2023/10/02 02:05:44;;;;;;;7.07;4.18;;;;;;;;;;5003577;28;20185;-51
2023/10/02 02:08:22;;;;;;;5.78;3.72;;;;;;;;;;5009007;28;20207;-51
2023/10/02 02:10:50;;;;;;;8.25;4.63;;;;;;;;;;4999608;28;20561;-51
2023/10/02 02:13:16;;;;;;;6.72;3.70;;;;;;;;;;5004546;28;20189;-51
2023/10/02 02:15:47;;;;;;;8.63;3.65;;;;;;;;;;4990721;28;20193;-51
2023/10/02 02:18:14;;;;;;;8.20;3.83;;;;;;;;;;5003453;28;20182;-51
2023/10/02 02:20:58;;;;;;;6.57;3.50;;;;;;;;;;5006433;28;20514;-51
2023/10/02 02:23:27;;;;;;;7.10;3.70;;;;;;;;;;5005988;28;20185;-51
2023/10/02 02:25:53;;;;;;;6.47;3.92;;;;;;;;;;5009313;28;20178;-52
2023/10/02 02:28:19;;;;;;;6.63;3.63;;;;;;;;;;5006578;28;20517;-51
2023/10/02 02:30:47;;;;;;;6.57;3.80;;;;;;;;;;5005675;28;20259;-51
2023/10/02 02:33:13;;;;;;;7.80;3.67;;;;;;;;;;4996633;28;20259;-51
2023/10/02 02:35:39;;;;;;;9.25;3.92;;;;;;;;;;4997943;28;20212;-51
2023/10/02 02:38:14;;;;;;;5.95;3.60;;;;;;;;;;5012278;28;20497;-51
2023/10/02 02:40:40;;;;;;;5.68;3.28;;;;;;;;;;4988340;28;20307;-51
2023/10/02 02:43:21;;;;;;;6.43;3.67;;;;;;;;;;4994836;28;20602;-51
2023/10/02 02:45:47;;;;;;;5.25;3.63;;;;;;;;;;5003547;28;20169;-51
2023/10/02 02:48:16;;;;;;;7.72;4.05;;;;;;;;;;4990620;28;20191;-51
2023/10/02 02:50:42;;;;;;;7.00;3.88;;;;;;;;;;4995308;28;20460;-51
2023/10/02 02:53:22;;;;;;;7.97;4.05;;;;;;;;;;4995384;28;20265;-51
2023/10/02 02:56:14;;;;;;;6.88;3.50;;;;;;;;;;5002705;28;20184;-51
2023/10/02 02:58:40;;;;;;;7.03;3.70;;;;;;;;;;4997777;28;20572;-51
2023/10/02 03:01:12;;;;;;;7.97;3.85;;;;;;;;;;5001666;28;20206;-51
2023/10/02 03:03:41;;;;;;;8.30;3.72;;;;;;;;;;4988602;28;20570;-51
2023/10/02 03:06:14;;;;;;;7.63;3.72;;;;;;;;;;4990710;28;20180;-51
2023/10/02 03:08:40;;;;;;;6.55;3.45;;;;;;;;;;4997439;28;20177;-51
2023/10/02 03:11:07;;;;;;;6.03;3.40;;;;;;;;;;4996830;28;20216;-51
2023/10/02 03:13:36;;;;;;;8.02;3.53;;;;;;;;;;4992665;28;20186;-51
2023/10/02 03:16:12;;;;;;;7.22;3.53;;;;;;;;;;4998162;28;20209;-51
2023/10/02 03:18:43;;;;;;;6.68;3.92;;;;;;;;;;5002907;28;20608;-51
2023/10/02 03:21:14;;;;;;;6.65;3.70;;;;;;;;;;4998973;28;20204;-51
2023/10/02 03:23:44;;;;;;;7.20;3.85;;;;;;;;;;4993389;28;20443;-51
2023/10/02 03:26:37;;;;;;;6.75;3.40;;;;;;;;;;4997824;28;20842;-51
2023/10/02 03:29:07;;;;;;;6.47;3.50;;;;;;;;;;4998829;28;20219;-51
2023/10/02 03:31:51;;;;;;;5.95;3.58;;;;;;;;;;5003563;28;20181;-51
2023/10/02 03:34:33;;;;;;;6.25;3.70;;;;;;;;;;4990298;28;20181;-51
2023/10/02 03:39:59;;;;;;;4.80;3.08;;;;;;;;;;4991174;28;20188;-51
2023/10/02 03:42:25;;;;;;;8.88;3.45;;;;;;;;;;4991226;28;20538;-52
2023/10/02 03:44:56;;;;;;;8.13;3.83;;;;;;;;;;4994978;28;20219;-52
2023/10/02 03:47:22;;;;;;;8.45;4.15;;;;;;;;;;4995882;28;20191;-52
2023/10/02 03:49:49;;;;;;;12.95;4.35;;;;;;;;;;4991793;28;20192;-52
2023/10/02 03:52:18;;;;;;;22.35;5.22;;;;;;;;;;5001600;28;20195;-52
2023/10/02 03:54:45;;;;;;;24.45;6.70;;;;;;;;;;5007003;28;20180;-52
2023/10/02 03:57:36;;;;;;;19.67;6.32;;;;;;;;;;5002744;28;20196;-52
2023/10/02 03:59:57;;;;;;;31.25;6.45;;;;;;;;;;4993732;28;20201;-52
2023/10/02 04:02:26;;;;;;;27.98;7.22;;;;;;;;;;4995210;28;20586;-52
2023/10/02 04:04:52;;;;;;;26.35;7.70;;;;;;;;;;4997548;28;20196;-52
2023/10/02 04:07:18;;;;;;;26.80;7.82;;;;;;;;;;5000222;28;20189;-52
2023/10/02 04:09:50;;;;;;;27.13;7.60;;;;;;;;;;4989835;28;20188;-53
2023/10/02 04:12:19;;;;;;;23.45;6.55;;;;;;;;;;5001141;28;20187;-52
2023/10/02 04:14:46;;;;;;;23.02;6.68;;;;;;;;;;5001145;28;20169;-52
2023/10/02 04:17:14;;;;;;;25.65;6.90;;;;;;;;;;4996984;28;20231;-52
2023/10/02 04:19:43;;;;;;;25.55;6.78;;;;;;;;;;5004813;28;20180;-52
2023/10/02 04:22:19;;;;;;;18.40;6.07;;;;;;;;;;4995498;28;20207;-52
2023/10/02 04:32:39;;;;;;;13.05;5.35;;;;;;;;;;5004329;28;20191;-52
2023/10/02 04:35:43;;;;;;;15.68;5.88;;;;;;;;;;5012277;28;20177;-52
2023/10/02 04:37:52;;;;;;;15.98;5.10;;;;;;;;;;5002840;28;20587;-52
2023/10/02 04:40:23;;;;;;;16.80;5.13;;;;;;;;;;5003865;28;20205;-52
2023/10/02 04:43:09;;;;;;;15.48;4.93;;;;;;;;;;4999679;28;20568;-52
2023/10/02 04:45:36;;;;;;;18.23;4.93;;;;;;;;;;5001798;28;20172;-52
2023/10/02 04:48:09;;;;;;;17.55;5.05;;;;;;;;;;5001428;28;20553;-52
2023/10/02 04:50:35;;;;;;;16.33;4.70;;;;;;;;;;5007656;28;20196;-52
2023/10/02 04:53:45;;;;;;;11.10;5.00;;;;;;;;;;4997516;28;20188;-52
2023/10/02 04:56:07;;;;;;;11.35;4.20;;;;;;;;;;4999750;28;20199;-52
2023/10/02 04:58:36;;;;;;;13.02;4.47;;;;;;;;;;4992554;28;20244;-52
2023/10/02 05:03:29;;;;;;;9.00;4.00;;;;;;;;;;4997604;28;20205;-53
2023/10/02 05:05:58;;;;;;;10.75;4.55;;;;;;;;;;5008418;28;20267;-53
2023/10/02 05:08:34;;;;;;;15.68;4.38;;;;;;;;;;4995520;28;20449;-52
2023/10/02 05:11:07;;;;;;;11.85;4.05;;;;;;;;;;5009224;28;20184;-52
2023/10/02 05:16:29;;;;;;;6.28;3.47;;;;;;;;;;4993189;28;20287;-52
2023/10/02 05:18:56;;;;;;;8.90;4.00;;;;;;;;;;4997796;28;20201;-52
2023/10/02 05:21:35;;;;;;;9.95;3.67;;;;;;;;;;4999609;28;20283;-52
2023/10/02 05:24:02;;;;;;;7.13;4.00;;;;;;;;;;5000598;28;20185;-52
2023/10/02 05:26:44;;;;;;;9.60;3.80;;;;;;;;;;5006726;28;20177;-52
2023/10/02 05:29:18;;;;;;;8.10;3.78;;;;;;;;;;4998239;28;20173;-52
2023/10/02 05:31:47;;;;;;;7.88;3.90;;;;;;;;;;5003165;28;20169;-52
2023/10/02 05:34:22;;;;;;;8.25;3.22;;;;;;;;;;5004428;28;20570;-53
2023/10/02 05:39:39;;;;;;;7.20;3.80;;;;;;;;;;4992391;28;20184;-52
2023/10/02 05:42:13;;;;;;;7.68;3.58;;;;;;;;;;4990577;28;20328;-52
2023/10/02 05:44:40;;;;;;;8.18;3.17;;;;;;;;;;5004307;28;20453;-52
2023/10/02 05:47:07;;;;;;;7.68;3.58;;;;;;;;;;4995536;28;20182;-52
2023/10/02 05:49:49;;;;;;;7.25;3.78;;;;;;;;;;4999920;28;20226;-52
2023/10/02 05:52:18;;;;;;;7.35;3.20;;;;;;;;;;5003536;28;20177;-52
2023/10/02 05:54:47;;;;;;;9.52;3.55;;;;;;;;;;5008087;28;20266;-52
2023/10/02 05:57:13;;;;;;;10.98;4.03;;;;;;;;;;5001115;28;20205;-52
2023/10/02 05:59:45;;;;;;;8.45;3.42;;;;;;;;;;4997914;28;20260;-52
2023/10/02 06:02:12;;;;;;;5.80;3.45;;;;;;;;;;5005570;28;20604;-52
2023/10/02 06:04:38;;;;;;;8.63;3.38;;;;;;;;;;5004796;28;20196;-52
2023/10/02 06:07:11;;;;;;;9.85;3.88;;;;;;;;;;5004623;28;20231;-52
2023/10/02 06:09:43;;;;;;;7.30;3.60;;;;;;;;;;5007015;28;20172;-52
2023/10/02 06:12:13;;;;;;;7.30;3.47;;;;;;;;;;5009799;28;20186;-52
2023/10/02 06:14:45;;;;;;;8.05;3.10;;;;;;;;;;5008529;28;20196;-53
2023/10/02 06:17:11;;;;;;;5.68;3.17;;;;;;;;;;5006966;28;20186;-53
2023/10/02 06:19:44;;;;;;;8.52;3.67;;;;;;;;;;5001057;28;20190;-53
2023/10/02 06:22:13;;;;;;;11.65;4.60;;;;;;;;;;5002406;28;20193;-53
2023/10/02 06:24:43;;;;;;;6.68;3.97;;;;;;;;;;5007061;28;20197;-53
2023/10/02 06:27:14;;;;;;;8.27;3.72;;;;;;;;;;5014951;28;20188;-53
2023/10/02 06:29:43;;;;;;;6.45;3.60;;;;;;;;;;4995273;28;20273;-53
2023/10/02 06:32:16;;;;;;;8.32;3.97;;;;;;;;;;5000080;28;20213;-54
2023/10/02 06:34:44;;;;;;;7.90;3.60;;;;;;;;;;4996997;28;20280;-53
2023/10/02 06:37:11;;;;;;;8.48;4.18;;;;;;;;;;5012819;28;20462;-54
2023/10/02 06:39:41;;;;;;;7.22;3.55;;;;;;;;;;4992891;28;20537;-53
2023/10/02 06:42:08;;;;;;;7.75;3.13;;;;;;;;;;4984981;28;20218;-53
2023/10/02 06:44:42;;;;;;;7.25;3.70;;;;;;;;;;4997398;28;20260;-53
2023/10/02 06:47:11;;;;;;;7.53;3.88;;;;;;;;;;4996284;28;20189;-53
2023/10/02 06:49:39;;;;;;;7.55;3.63;;;;;;;;;;4995418;28;20264;-53
2023/10/02 06:52:13;;;;;;;7.57;4.30;;;;;;;;;;4992394;28;20196;-55
2023/10/02 06:54:45;;;;;;;7.82;3.70;;;;;;;;;;5006454;28;20184;-55
2023/10/02 06:57:13;;;;;;;11.38;4.22;;;;;;;;;;5000108;28;20212;-55
2023/10/02 06:59:39;;;;;;;9.07;4.03;;;;;;;;;;5006187;28;20263;-55
2023/10/02 07:02:06;;;;;;;9.60;3.97;;;;;;;;;;5005976;28;20282;-55
2023/10/02 07:04:36;;;;;;;7.50;3.65;;;;;;;;;;5006697;28;20184;-55
2023/10/02 07:07:07;;;;;;;9.68;4.15;;;;;;;;;;5004900;28;20623;-56
2023/10/02 07:09:37;;;;;;;12.43;4.70;;;;;;;;;;5001487;28;20177;-55
2023/10/02 07:12:09;;;;;;;8.20;4.03;;;;;;;;;;5004071;28;20584;-55
2023/10/02 07:14:39;;;;;;;8.90;4.20;;;;;;;;;;4996787;28;20192;-55
2023/10/02 07:17:12;;;;;;;6.78;3.50;;;;;;;;;;5000408;28;20231;-55
2023/10/02 07:19:38;;;;;;;7.82;4.00;;;;;;;;;;5003405;28;20182;-55
2023/10/02 07:22:11;;;;;;;9.13;4.10;;;;;;;;;;5003458;28;20267;-55
2023/10/02 07:24:40;;;;;;;8.45;4.10;;;;;;;;;;4996759;28;20295;-55
2023/10/02 07:27:16;;;;;;;10.07;4.18;;;;;;;;;;5008155;28;20624;-55
2023/10/02 07:29:48;;;;;;;9.13;4.50;;;;;;;;;;5001811;28;20505;-55
2023/10/02 07:32:14;;;;;;;7.20;4.28;;;;;;;;;;5003967;28;20192;-55
2023/10/02 07:34:40;;;;;;;10.70;4.25;;;;;;;;;;5005150;28;20213;-55
2023/10/02 07:37:06;;;;;;;7.25;3.80;;;;;;;;;;5001965;28;20556;-55
2023/10/02 07:39:35;;;;;;;7.60;3.97;;;;;;;;;;4991663;28;20568;-55
2023/10/02 07:42:01;;;;;;;9.35;4.57;;;;;;;;;;5006998;28;20212;-56
2023/10/02 07:44:39;;;;;;;9.57;4.15;;;;;;;;;;5013282;28;20509;-55
2023/10/02 07:47:19;;;;;;;12.20;4.68;;;;;;;;;;5002655;28;20252;-55
2023/10/02 07:49:51;;;;;;;10.98;4.50;;;;;;;;;;4990152;28;20173;-55
2023/10/02 07:52:26;;;;;;;7.78;4.30;;;;;;;;;;5000299;28;20264;-55
2023/10/02 07:54:58;;;;;;;8.40;4.30;;;;;;;;;;5006411;28;20232;-55
2023/10/02 07:57:30;;;;;;;9.15;4.15;;;;;;;;;;5001021;28;20401;-55
2023/10/02 07:59:57;;;;;;;9.40;4.20;;;;;;;;;;4997242;28;20177;-55
2023/10/02 08:02:23;;;;;;;12.38;4.10;;;;;;;;;;5006477;28;20617;-52
2023/10/02 08:04:52;;;;;;;9.93;4.32;;;;;;;;;;4990564;28;20177;-55
2023/10/02 08:07:18;;;;;;;8.38;3.67;;;;;;;;;;5000662;28;20208;-55
2023/10/02 08:09:48;;;;;;;10.88;4.28;;;;;;;;;;5003803;28;20181;-55
2023/10/02 08:12:30;;;;;;;12.18;4.10;;;;;;;;;;4994487;28;20192;-55
2023/10/02 08:15:02;;;;;;;9.93;4.57;;;;;;;;;;5000829;28;20178;-55
2023/10/02 08:17:59;;;;;;;9.98;4.88;;;;;;;;;;5004157;28;20201;-55
2023/10/02 08:20:19;;;;;;;11.10;5.63;;;;;;;;;;4998910;28;20217;-55
2023/10/02 08:22:46;;;;;;;9.50;4.85;;;;;;;;;;4996348;28;20200;-55
2023/10/02 08:25:13;;;;;;;10.00;5.22;;;;;;;;;;4986761;28;20197;-55
2023/10/02 08:27:58;;;;;;;8.25;4.10;;;;;;;;;;4995651;28;20571;-55
2023/10/02 08:30:31;;;;;;;10.50;4.43;;;;;;;;;;4995802;28;20185;-55
2023/10/02 08:33:05;;;;;;;13.80;5.65;;;;;;;;;;5003165;28;20176;-53
2023/10/02 08:35:31;;;;;;;11.50;4.60;;;;;;;;;;4991096;28;20258;-53
2023/10/02 08:37:59;;;;;;;10.50;4.78;;;;;;;;;;4991756;28;20200;-53
2023/10/02 08:40:25;;;;;;;11.10;4.78;;;;;;;;;;4990692;28;20297;-54
2023/10/02 08:42:53;;;;;;;8.75;4.70;;;;;;;;;;4987575;28;20694;-54
2023/10/02 08:45:20;;;;;;;8.90;4.70;;;;;;;;;;4987096;28;20205;-55
2023/10/02 08:47:49;;;;;;;10.70;5.65;;;;;;;;;;4986748;28;20607;-55
2023/10/02 08:50:19;;;;;;;11.32;5.05;;;;;;;;;;4995330;28;20204;-55
2023/10/02 08:52:51;;;;;;;11.90;5.10;;;;;;;;;;5002412;28;20212;-55
2023/10/02 08:55:33;;;;;;;10.93;4.57;;;;;;;;;;4993356;28;20199;-55
2023/10/02 08:58:15;;;;;;;11.27;5.38;;;;;;;;;;5002820;28;20298;-55
2023/10/02 09:01:06;;;;;;;11.50;5.13;;;;;;;;;;4999307;28;20250;-55
2023/10/02 09:03:42;;;;;;;9.30;4.35;;;;;;;;;;4997230;28;20217;-55
2023/10/02 09:09:13;;;;;;;10.55;4.53;;;;;;;;;;4996393;28;20594;-55
2023/10/02 09:11:39;;;;;;;9.05;4.65;;;;;;;;;;5007491;28;20275;-55
2023/10/02 09:14:39;;;;;;;9.63;5.25;;;;;;;;;;4996776;28;20197;-55
2023/10/02 09:17:22;;;;;;;9.15;4.55;;;;;;;;;;5001215;28;20181;-55
2023/10/02 09:20:00;;;;;;;10.10;4.95;;;;;;;;;;5004064;28;20184;-55
2023/10/02 09:22:27;;;;;;;9.00;4.55;;;;;;;;;;5006537;28;20181;-55
2023/10/02 09:24:57;;;;;;;9.70;5.00;;;;;;;;;;5002016;28;20192;-55
2023/10/02 09:27:24;;;;;;;9.75;4.60;;;;;;;;;;5011147;28;20564;-55
2023/10/02 09:30:15;;;;;;;11.52;5.07;;;;;;;;;;5002414;28;20596;-55
2023/10/02 09:32:49;;;;;;;9.68;4.35;;;;;;;;;;5007901;28;20192;-55
2023/10/02 09:35:39;;;;;;;8.93;4.78;;;;;;;;;;5009974;28;20192;-55
2023/10/02 09:38:15;;;;;;;10.15;4.90;;;;;;;;;;5004687;28;20208;-55
2023/10/02 09:40:54;;;;;;;10.35;5.20;;;;;;;;;;5002082;28;20205;-55
2023/10/02 09:43:21;;;;;;;10.20;4.95;;;;;;;;;;4999564;28;20572;-55
2023/10/02 09:45:53;;;;;;;10.32;5.57;;;;;;;;;;5003903;28;20193;-55
2023/10/02 09:48:47;;;;;;;12.57;5.80;;;;;;;;;;5009704;28;20314;-55
2023/10/02 09:51:38;;;;;;;10.38;4.93;;;;;;;;;;5006994;28;20196;-55
2023/10/02 09:54:08;;;;;;;10.35;4.95;;;;;;;;;;4968722;28;20297;-55
2023/10/02 09:56:37;;;;;;;9.57;4.97;;;;;;;;;;5003337;28;20628;-55
2023/10/02 09:59:16;;;;;;;9.75;5.05;;;;;;;;;;5002695;28;20181;-54
2023/10/02 10:01:42;;;;;;;14.98;5.13;;;;;;;;;;5000233;28;20515;-55
2023/10/02 10:07:09;;;;;;;9.93;5.47;;;;;;;;;;4997071;28;20267;-55
2023/10/02 10:09:50;;;;;;;13.85;5.75;;;;;;;;;;5000603;28;20215;-55
2023/10/02 10:12:50;;;;;;;12.18;5.68;;;;;;;;;;5002104;28;20191;-55
2023/10/02 10:15:25;;;;;;;10.60;5.55;;;;;;;;;;4994470;28;21161;-55
2023/10/02 10:17:51;;;;;;;10.93;5.60;;;;;;;;;;5000825;28;20439;-55
2023/10/02 10:20:22;;;;;;;10.82;5.47;;;;;;;;;;4999137;28;20611;-55
2023/10/02 10:22:53;;;;;;;11.32;5.32;;;;;;;;;;4995619;28;20272;-55
2023/10/02 10:28:04;;;;;;;10.90;5.63;;;;;;;;;;5015292;28;20173;-52
2023/10/02 10:30:33;;;;;;;12.13;5.60;;;;;;;;;;4996641;28;20182;-53
2023/10/02 10:35:34;;;;;;;13.23;5.75;;;;;;;;;;5002368;28;20442;-53
2023/10/02 10:38:03;;;;;;;10.52;4.78;;;;;;;;;;5007069;28;20187;-53
2023/10/02 10:40:46;;;;;;;13.50;6.00;;;;;;;;;;5004627;28;20609;-53
2023/10/02 10:43:14;;;;;;;12.07;5.95;;;;;;;;;;4996097;28;20479;-53
2023/10/02 10:45:40;;;;;;;10.50;5.22;;;;;;;;;;5002256;28;20262;-53
2023/10/02 10:48:26;;;;;;;10.63;5.93;;;;;;;;;;5003385;28;20200;-53
2023/10/02 10:51:09;;;;;;;11.70;5.85;;;;;;;;;;4984562;28;20181;-52
2023/10/02 10:53:41;;;;;;;13.65;6.35;;;;;;;;;;5006573;28;20191;-52
2023/10/02 10:56:19;;;;;;;11.20;5.70;;;;;;;;;;5003244;28;20260;-52
2023/10/02 10:58:52;;;;;;;9.82;4.97;;;;;;;;;;5000243;28;20288;-52
2023/10/02 11:01:21;;;;;;;13.48;5.55;;;;;;;;;;4986426;28;20189;-52
2023/10/02 11:03:54;;;;;;;12.18;6.30;;;;;;;;;;5001070;28;20180;-52
2023/10/02 11:06:24;;;;;;;12.30;6.57;;;;;;;;;;5006988;28;20192;-52
2023/10/02 11:09:11;;;;;;;16.30;6.32;;;;;;;;;;4993313;28;20462;-53
2023/10/02 11:11:49;;;;;;;11.02;5.38;;;;;;;;;;5001076;28;20226;-52
2023/10/02 11:14:20;;;;;;;12.98;6.07;;;;;;;;;;4998922;28;20188;-52
2023/10/02 11:16:50;;;;;;;14.20;7.15;;;;;;;;;;4999488;28;20192;-52
2023/10/02 11:24:43;;;;;;;13.82;5.70;;;;;;;;;;4998120;28;20564;-53
2023/10/02 11:27:14;;;;;;;12.63;6.40;;;;;;;;;;5007678;28;20185;-52
2023/10/02 11:29:40;;;;;;;12.90;5.93;;;;;;;;;;4997799;28;20181;-52
2023/10/02 11:32:19;;;;;;;10.35;5.85;;;;;;;;;;5006974;28;20192;-52
2023/10/02 11:34:49;;;;;;;11.73;6.28;;;;;;;;;;4999632;28;20276;-52
2023/10/02 11:37:15;;;;;;;15.02;6.93;;;;;;;;;;4999184;28;20268;-52
2023/10/02 11:39:42;;;;;;;15.13;6.47;;;;;;;;;;5005445;28;20188;-52
2023/10/02 11:42:08;;;;;;;11.77;5.60;;;;;;;;;;5003882;28;20220;-53
2023/10/02 11:44:34;;;;;;;14.65;6.80;;;;;;;;;;4998957;28;20231;-52
2023/10/02 11:47:00;;;;;;;13.38;6.55;;;;;;;;;;4992853;28;20189;-52
2023/10/02 11:49:29;;;;;;;13.40;6.15;;;;;;;;;;4991648;28;20192;-52
2023/10/02 11:52:00;;;;;;;12.73;5.50;;;;;;;;;;4991548;28;20180;-52
2023/10/02 11:54:25;;;;;;;12.73;6.07;;;;;;;;;;4998259;28;20192;-52
2023/10/02 11:56:51;;;;;;;13.77;6.72;;;;;;;;;;4997319;28;20197;-52
2023/10/02 11:59:17;;;;;;;12.13;5.55;;;;;;;;;;4998873;28;20578;-52
2023/10/02 12:01:45;;;;;;;15.93;6.40;;;;;;;;;;5001048;28;20204;-52
2023/10/02 12:04:11;;;;;;;12.32;5.80;;;;;;;;;;5002289;28;20194;-52
2023/10/02 12:06:38;;;;;;;13.43;6.53;;;;;;;;;;5002026;28;20220;-52
2023/10/02 12:09:04;;;;;;;12.07;5.65;;;;;;;;;;5004037;28;20177;-52
2023/10/02 12:11:32;;;;;;;16.38;7.03;;;;;;;;;;5006395;28;20188;-52
2023/10/02 12:13:58;;;;;;;14.90;6.53;;;;;;;;;;4981338;28;20217;-52
2023/10/02 12:16:24;;;;;;;15.75;6.07;;;;;;;;;;4982985;28;20177;-52
2023/10/02 12:18:51;;;;;;;14.40;6.15;;;;;;;;;;4992304;28;20189;-52
2023/10/02 12:21:19;;;;;;;15.45;6.60;;;;;;;;;;5006338;28;20551;-52
2023/10/02 12:23:46;;;;;;;14.20;6.40;;;;;;;;;;4992851;28;20576;-52
2023/10/02 12:26:15;;;;;;;14.43;6.10;;;;;;;;;;4990893;28;20212;-52
2023/10/02 12:28:42;;;;;;;13.80;6.30;;;;;;;;;;4993272;28;20180;-53
2023/10/02 12:31:09;;;;;;;13.82;6.32;;;;;;;;;;5001539;28;20180;-52
2023/10/02 12:33:35;;;;;;;13.45;6.43;;;;;;;;;;5006300;28;20187;-52
2023/10/02 12:36:03;;;;;;;15.82;6.72;;;;;;;;;;4995821;28;20207;-53
2023/10/02 12:38:29;;;;;;;12.80;6.22;;;;;;;;;;4993342;28;20184;-53
2023/10/02 12:40:55;;;;;;;13.20;6.18;;;;;;;;;;5000841;28;20510;-52
2023/10/02 12:43:20;;;;;;;11.93;5.72;;;;;;;;;;4990210;28;20252;-52
2023/10/02 12:45:46;;;;;;;14.15;6.35;;;;;;;;;;4993533;28;20275;-52
2023/10/02 12:48:17;;;;;;;12.75;5.93;;;;;;;;;;4992662;28;20521;-52
2023/10/02 12:50:45;;;;;;;13.95;6.72;;;;;;;;;;4984684;28;20581;-52
2023/10/02 12:53:11;;;;;;;16.15;6.45;;;;;;;;;;5005642;28;20227;-52
2023/10/02 12:55:40;;;;;;;14.65;5.95;;;;;;;;;;5002715;28;20181;-52
2023/10/02 12:58:06;;;;;;;13.93;6.60;;;;;;;;;;5000923;28;20180;-52
2023/10/02 13:00:33;;;;;;;15.07;6.80;;;;;;;;;;4992936;28;20255;-52
2023/10/02 13:02:59;;;;;;;13.48;6.05;;;;;;;;;;5000423;28;20219;-52
2023/10/02 13:05:29;;;;;;;14.52;6.20;;;;;;;;;;5001861;28;20189;-52
2023/10/02 13:07:56;;;;;;;19.75;6.68;;;;;;;;;;4999541;28;20188;-52
2023/10/02 13:10:25;;;;;;;15.95;6.88;;;;;;;;;;5002928;28;20172;-52
2023/10/02 13:12:51;;;;;;;21.35;6.55;;;;;;;;;;5006425;28;20185;-52
2023/10/02 13:15:17;;;;;;;15.23;6.57;;;;;;;;;;5007871;28;20203;-52
2023/10/02 13:17:43;;;;;;;20.33;5.95;;;;;;;;;;4993375;28;20174;-52
2023/10/02 13:20:10;;;;;;;15.35;6.25;;;;;;;;;;5005200;28;20247;-52
2023/10/02 13:22:36;;;;;;;12.50;6.05;;;;;;;;;;5012666;28;20538;-52
2023/10/02 13:25:05;;;;;;;12.48;5.93;;;;;;;;;;5013365;28;20615;-52
2023/10/02 13:27:32;;;;;;;14.32;6.43;;;;;;;;;;5005625;28;20644;-52
2023/10/02 13:29:58;;;;;;;14.93;6.35;;;;;;;;;;4991527;28;20200;-52
2023/10/02 13:32:26;;;;;;;14.02;5.53;;;;;;;;;;5006969;28;20639;-52
2023/10/02 13:34:54;;;;;;;12.65;5.88;;;;;;;;;;5002587;28;20181;-52
2023/10/02 13:37:20;;;;;;;13.65;6.05;;;;;;;;;;4999287;28;20165;-53
2023/10/02 13:39:47;;;;;;;13.43;5.35;;;;;;;;;;5004236;28;20200;-52
2023/10/02 13:42:14;;;;;;;12.35;6.00;;;;;;;;;;5003361;28;20708;-52
2023/10/02 13:44:40;;;;;;;12.40;5.53;;;;;;;;;;5000082;28;20485;-52
2023/10/02 13:47:06;;;;;;;13.80;5.55;;;;;;;;;;5005715;28;20181;-52
2023/10/02 13:49:35;;;;;;;12.45;6.22;;;;;;;;;;4995282;28;20185;-52
2023/10/02 13:52:01;;;;;;;16.77;6.30;;;;;;;;;;5008625;28;20590;-53
2023/10/02 13:54:27;;;;;;;15.48;5.95;;;;;;;;;;4990767;28;20268;-52
2023/10/02 13:56:53;;;;;;;11.50;5.43;;;;;;;;;;4993270;28;20204;-52
2023/10/02 13:59:19;;;;;;;12.18;5.65;;;;;;;;;;4992615;28;20185;-52
2023/10/02 14:01:46;;;;;;;12.55;6.22;;;;;;;;;;5007553;28;20599;-52
2023/10/02 14:04:12;;;;;;;12.40;5.72;;;;;;;;;;4994948;28;20173;-52
2023/10/02 14:06:37;;;;;;;13.57;6.20;;;;;;;;;;5000920;28;20281;-52
2023/10/02 14:09:09;;;;;;;15.30;6.55;;;;;;;;;;4992252;28;20201;-53
2023/10/02 14:11:36;;;;;;;14.60;5.57;;;;;;;;;;5001385;28;20537;-52
2023/10/02 14:14:02;;;;;;;14.95;6.65;;;;;;;;;;5001941;28;20185;-52
2023/10/02 14:16:28;;;;;;;14.35;6.45;;;;;;;;;;5003992;28;20675;-53
2023/10/02 14:18:56;;;;;;;13.80;5.78;;;;;;;;;;4997827;28;20596;-52
2023/10/02 14:21:23;;;;;;;18.50;6.50;;;;;;;;;;5000824;28;20304;-52
2023/10/02 14:23:52;;;;;;;21.05;7.05;;;;;;;;;;4992042;28;20216;-52
2023/10/02 14:26:19;;;;;;;24.25;6.82;;;;;;;;;;4998109;28;20173;-52
2023/10/02 14:28:46;;;;;;;20.63;6.88;;;;;;;;;;4990732;28;20619;-52
2023/10/02 14:31:12;;;;;;;13.45;5.85;;;;;;;;;;4991153;28;20189;-53
2023/10/02 14:33:40;;;;;;;15.98;6.50;;;;;;;;;;4987587;28;20849;-52
2023/10/02 14:36:07;;;;;;;16.15;6.57;;;;;;;;;;5014749;28;20625;-52
2023/10/02 14:38:37;;;;;;;15.63;5.90;;;;;;;;;;5005078;28;20697;-52
2023/10/02 14:41:03;;;;;;;17.88;6.22;;;;;;;;;;4995595;28;20216;-52
2023/10/02 14:43:31;;;;;;;12.85;6.38;;;;;;;;;;4991509;28;20173;-52
2023/10/02 14:45:57;;;;;;;11.45;5.32;;;;;;;;;;4994333;28;20181;-52
2023/10/02 14:48:24;;;;;;;11.98;5.82;;;;;;;;;;4988516;28;20171;-52
2023/10/02 14:50:51;;;;;;;15.73;6.47;;;;;;;;;;5001353;28;20188;-52
2023/10/02 14:53:17;;;;;;;11.13;5.38;;;;;;;;;;5008910;28;20197;-52
2023/10/02 14:55:47;;;;;;;9.75;5.68;;;;;;;;;;5002660;28;20181;-53
2023/10/02 14:58:13;;;;;;;14.82;6.65;;;;;;;;;;5000442;28;20180;-52
2023/10/02 15:00:40;;;;;;;15.23;6.47;;;;;;;;;;4993877;28;20475;-52
2023/10/02 15:03:06;;;;;;;13.88;5.80;;;;;;;;;;4998779;28;20205;-52
2023/10/02 15:05:32;;;;;;;13.18;6.25;;;;;;;;;;4998714;28;20187;-52
2023/10/02 15:08:00;;;;;;;15.25;6.47;;;;;;;;;;5006379;28;20224;-52
2023/10/02 15:10:28;;;;;;;14.98;6.07;;;;;;;;;;5002784;28;20181;-53
2023/10/02 15:12:54;;;;;;;13.00;6.43;;;;;;;;;;5002538;28;20176;-52
2023/10/02 15:15:22;;;;;;;16.63;5.75;;;;;;;;;;4999489;28;20189;-52
2023/10/02 15:17:48;;;;;;;15.13;6.55;;;;;;;;;;4991837;28;20231;-52
2023/10/02 15:20:15;;;;;;;13.00;6.25;;;;;;;;;;5003731;28;20181;-52
2023/10/02 15:23:01;;;;;;;16.63;6.20;;;;;;;;;;5002371;28;20181;-53
2023/10/02 15:25:30;;;;;;;12.35;6.22;;;;;;;;;;4999605;28;20221;-52
2023/10/02 15:28:00;;;;;;;15.65;6.80;;;;;;;;;;5004569;28;20189;-52
2023/10/02 15:30:26;;;;;;;12.93;6.28;;;;;;;;;;4998268;28;20185;-52
2023/10/02 15:32:56;;;;;;;12.35;5.90;;;;;;;;;;4998867;28;20181;-52
2023/10/02 15:35:25;;;;;;;13.07;6.10;;;;;;;;;;5002449;28;20173;-52
2023/10/02 15:37:54;;;;;;;14.88;6.80;;;;;;;;;;5004021;28;20204;-52
2023/10/02 15:40:23;;;;;;;15.32;6.90;;;;;;;;;;4995843;28;20200;-52
2023/10/02 15:42:53;;;;;;;13.10;6.15;;;;;;;;;;4994026;28;20181;-52